Time;durP1;ratioP1;P1;durP2;ratioP2;P2;SDS_P1;SDS_P2;PMS_P1;PMS_P2;Temp;Humidity;BMP_temperature;BMP_pressure;BME280_temperature;BME280_humidity;BME280_pressure;Samples;Min_cycle;Max_cycle;Signal;HPM_P1;HPM_P2
2023/12/21 06:02:00;;;;;;;0.75;0.20;;;7.00;81.90;;;;;;4199945;23;20330;-78
2023/12/21 06:04:02;;;;;;;0.60;0.20;;;7.10;82.10;;;;;;4116498;28;20057;-78
2023/12/21 06:06:05;;;;;;;0.85;0.30;;;7.10;82.10;;;;;;4121152;28;20393;-77
2023/12/21 06:08:07;;;;;;;0.30;0.10;;;7.10;82.20;;;;;;4117206;28;20381;-78
2023/12/21 06:10:10;;;;;;;1.60;0.30;;;7.10;82.40;;;;;;4117304;28;20055;-77
2023/12/21 06:12:11;;;;;;;0.40;0.10;;;7.10;82.60;;;;;;4116995;28;20043;-77
2023/12/21 06:14:13;;;;;;;0.40;0.10;;;7.10;82.80;;;;;;4117177;28;20094;-77
2023/12/21 06:16:15;;;;;;;0.47;0.17;;;7.10;83.20;;;;;;4117074;28;20046;-77
2023/12/21 06:18:18;;;;;;;0.32;0.13;;;7.00;83.50;;;;;;4117067;28;20055;-78
2023/12/21 06:20:20;;;;;;;0.68;0.20;;;7.00;83.90;;;;;;4117093;28;20554;-78
2023/12/21 06:22:22;;;;;;;0.95;0.30;;;7.00;84.00;;;;;;4116947;28;20065;-78
2023/12/21 06:24:23;;;;;;;0.45;0.20;;;7.00;84.00;;;;;;4117035;28;20444;-78
2023/12/21 06:26:25;;;;;;;0.35;0.20;;;7.10;84.00;;;;;;4116176;28;20102;-78
2023/12/21 06:28:27;;;;;;;0.73;0.30;;;7.10;84.10;;;;;;4116995;28;20058;-79
2023/12/21 06:30:29;;;;;;;0.50;0.20;;;7.00;84.20;;;;;;4116728;28;20093;-80
2023/12/21 06:32:31;;;;;;;0.22;0.10;;;7.10;84.30;;;;;;4116754;28;20109;-79
2023/12/21 06:34:34;;;;;;;0.25;0.10;;;7.10;84.50;;;;;;4117030;28;20439;-80
2023/12/21 06:36:36;;;;;;;0.70;0.15;;;7.00;84.50;;;;;;4116961;28;20082;-79
2023/12/21 06:38:37;;;;;;;1.02;0.28;;;7.00;84.50;;;;;;4116879;28;20106;-79
2023/12/21 06:40:39;;;;;;;0.65;0.25;;;7.10;84.60;;;;;;4116664;28;20456;-80
2023/12/21 06:42:41;;;;;;;0.85;0.30;;;7.00;84.60;;;;;;4116677;28;20054;-79
2023/12/21 06:44:43;;;;;;;1.20;0.20;;;7.10;84.50;;;;;;4116642;28;20476;-79
2023/12/21 06:46:45;;;;;;;0.35;0.20;;;7.10;84.50;;;;;;4116575;28;20135;-79
2023/12/21 06:48:45;;;;;;;0.45;0.10;;;7.10;84.90;;;;;;4116516;28;20385;-79
2023/12/21 06:50:49;;;;;;;1.20;0.20;;;7.10;84.50;;;;;;4116540;28;20123;-79
2023/12/21 06:52:50;;;;;;;0.82;0.30;;;7.20;84.20;;;;;;4116576;28;20447;-77
2023/12/21 06:54:52;;;;;;;0.68;0.13;;;7.20;84.20;;;;;;4116467;28;20135;-79
2023/12/21 06:56:54;;;;;;;1.30;0.13;;;7.20;84.00;;;;;;4116571;28;20109;-77
2023/12/21 06:58:55;;;;;;;0.40;0.10;;;7.20;84.00;;;;;;4116558;28;20050;-79
2023/12/21 07:00:58;;;;;;;0.68;0.20;;;7.20;83.70;;;;;;4103795;28;20128;-79
2023/12/21 07:03:00;;;;;;;0.28;0.10;;;7.30;83.60;;;;;;4100419;29;20051;-79
2023/12/21 07:05:02;;;;;;;0.60;0.20;;;7.30;83.40;;;;;;4100608;28;20489;-79
2023/12/21 07:07:06;;;;;;;0.38;0.13;;;7.30;83.30;;;;;;4100614;29;20102;-79
2023/12/21 07:09:09;;;;;;;0.65;0.17;;;7.30;83.00;;;;;;4100318;29;20059;-79
2023/12/21 07:11:11;;;;;;;0.40;0.13;;;7.30;82.90;;;;;;4100486;29;20477;-79
2023/12/21 07:13:11;;;;;;;1.00;0.22;;;7.40;82.70;;;;;;4100399;29;20548;-79
2023/12/21 07:15:16;;;;;;;0.38;0.10;;;7.40;82.70;;;;;;4100015;28;20051;-79
2023/12/21 07:17:18;;;;;;;0.52;0.22;;;7.40;83.40;;;;;;4100413;29;20086;-79
2023/12/21 07:19:20;;;;;;;0.40;0.20;;;7.50;82.50;;;;;;4100360;29;20102;-79
2023/12/21 07:21:23;;;;;;;0.43;0.10;;;7.50;82.30;;;;;;4100384;29;20055;-79
2023/12/21 07:23:26;;;;;;;1.45;0.22;;;7.50;82.30;;;;;;4100377;29;20460;-79
2023/12/21 07:25:28;;;;;;;0.20;0.10;;;7.50;82.00;;;;;;4100144;29;20079;-79
2023/12/21 07:27:30;;;;;;;0.60;0.20;;;7.60;82.10;;;;;;4100342;29;20051;-79
2023/12/21 07:29:31;;;;;;;0.77;0.20;;;7.50;82.00;;;;;;4100206;29;20043;-79
2023/12/21 07:31:33;;;;;;;0.60;0.20;;;7.60;81.90;;;;;;4099887;29;20055;-79
2023/12/21 07:33:37;;;;;;;0.70;0.20;;;7.60;81.90;;;;;;4100294;29;20118;-79
2023/12/21 07:35:38;;;;;;;1.73;0.30;;;7.60;81.90;;;;;;4100413;29;20579;-77
2023/12/21 07:37:40;;;;;;;0.65;0.20;;;7.60;81.70;;;;;;4100339;29;20049;-79
2023/12/21 07:39:44;;;;;;;0.63;0.20;;;7.60;81.70;;;;;;4100190;29;20059;-78
2023/12/21 07:41:46;;;;;;;1.48;0.20;;;7.70;81.50;;;;;;4100227;29;20047;-79
2023/12/21 07:43:47;;;;;;;0.68;0.20;;;7.70;81.40;;;;;;4100316;29;20114;-79
2023/12/21 07:45:50;;;;;;;0.82;0.20;;;7.70;81.30;;;;;;4100536;29;20083;-79
2023/12/21 07:47:52;;;;;;;0.50;0.25;;;7.70;81.40;;;;;;4100179;29;20051;-79
2023/12/21 07:49:55;;;;;;;1.48;0.20;;;7.70;81.20;;;;;;4100197;29;20563;-79
2023/12/21 07:51:57;;;;;;;1.05;0.30;;;7.70;81.20;;;;;;4100259;29;20477;-79
2023/12/21 07:53:58;;;;;;;0.50;0.20;;;7.70;81.00;;;;;;4100044;29;20047;-79
2023/12/21 07:56:02;;;;;;;0.55;0.22;;;7.70;81.00;;;;;;4100211;29;20540;-79
2023/12/21 07:58:05;;;;;;;0.55;0.25;;;7.70;80.90;;;;;;4100267;29;20081;-79
2023/12/21 08:00:10;;;;;;;0.40;0.10;;;7.80;80.80;;;;;;4105818;28;20098;-80
2023/12/21 08:02:11;;;;;;;0.95;0.38;;;7.80;80.70;;;;;;4115796;28;20456;-79
2023/12/21 08:04:13;;;;;;;1.10;0.40;;;7.80;81.30;;;;;;4116081;28;20106;-79
2023/12/21 08:06:22;;;;;;;0.75;0.35;;;7.80;80.60;;;;;;4115989;28;20101;-79
2023/12/21 08:08:23;;;;;;;0.85;0.30;;;7.80;80.60;;;;;;4116109;28;20042;-78
2023/12/21 08:10:25;;;;;;;0.45;0.20;;;7.80;80.60;;;;;;4116078;28;20078;-79
2023/12/21 08:12:28;;;;;;;1.10;0.28;;;7.80;80.60;;;;;;4116135;28;20047;-79
2023/12/21 08:14:35;;;;;;;0.77;0.30;;;7.90;80.50;;;;;;4116088;28;20047;-79
2023/12/21 08:16:37;;;;;;;0.43;0.20;;;7.90;80.40;;;;;;4116104;28;20500;-78
2023/12/21 08:18:39;;;;;;;1.00;0.35;;;7.90;80.20;;;;;;4116010;28;20047;-79
2023/12/21 08:20:42;;;;;;;0.47;0.20;;;7.90;80.20;;;;;;4116056;28;20059;-78
2023/12/21 08:22:44;;;;;;;0.93;0.30;;;7.90;80.30;;;;;;4115988;28;20507;-78
2023/12/21 08:24:46;;;;;;;0.57;0.20;;;7.90;80.20;;;;;;4115843;28;20472;-79
2023/12/21 08:26:48;;;;;;;0.93;0.22;;;8.00;80.20;;;;;;4115865;28;20082;-79
2023/12/21 08:28:52;;;;;;;0.75;0.30;;;7.90;80.10;;;;;;4118668;28;20110;-78
2023/12/21 08:30:53;;;;;;;2.33;0.40;;;8.00;80.10;;;;;;4118585;28;20082;-79
2023/12/21 08:32:55;;;;;;;0.38;0.20;;;7.90;80.00;;;;;;4118424;28;20058;-79
2023/12/21 08:34:57;;;;;;;0.28;0.20;;;8.00;80.00;;;;;;4118622;28;20123;-79
2023/12/21 08:36:59;;;;;;;0.73;0.32;;;8.00;80.00;;;;;;4118511;28;20047;-79
2023/12/21 08:39:01;;;;;;;1.85;0.28;;;8.00;80.10;;;;;;4118622;28;20469;-79
2023/12/21 08:41:03;;;;;;;0.57;0.20;;;8.00;80.20;;;;;;4118498;28;20059;-79
2023/12/21 08:43:05;;;;;;;0.90;0.30;;;7.90;80.30;;;;;;4118490;28;20094;-79
2023/12/21 08:45:10;;;;;;;1.42;0.22;;;8.00;80.40;;;;;;4118499;28;20125;-78
2023/12/21 08:47:13;;;;;;;1.50;0.40;;;8.00;80.30;;;;;;4118537;28;20050;-79
2023/12/21 08:49:17;;;;;;;1.13;0.30;;;8.00;80.40;;;;;;4118305;28;20356;-79
2023/12/21 08:51:19;;;;;;;0.80;0.30;;;8.00;80.30;;;;;;4118334;28;20051;-78
2023/12/21 08:53:21;;;;;;;0.63;0.20;;;8.00;80.40;;;;;;4118532;28;20050;-78
2023/12/21 08:55:23;;;;;;;1.08;0.40;;;8.00;80.20;;;;;;4118267;28;20047;-79
2023/12/21 08:57:24;;;;;;;0.38;0.20;;;8.00;80.20;;;;;;4118274;28;20090;-78
2023/12/21 08:59:26;;;;;;;1.35;0.32;;;8.00;80.20;;;;;;4118307;28;20054;-79
2023/12/21 09:01:30;;;;;;;0.40;0.20;;;8.00;80.20;;;;;;4118004;28;20094;-78
2023/12/21 09:03:32;;;;;;;0.80;0.40;;;8.00;80.30;;;;;;4118189;28;20074;-78
2023/12/21 09:05:34;;;;;;;0.77;0.32;;;8.00;80.40;;;;;;4118172;28;20131;-78
2023/12/21 09:07:35;;;;;;;1.73;0.40;;;8.00;80.50;;;;;;4118106;28;20105;-78
2023/12/21 09:09:37;;;;;;;0.85;0.30;;;8.00;80.40;;;;;;4118047;28;20055;-78
2023/12/21 09:11:38;;;;;;;1.38;0.30;;;8.00;80.40;;;;;;4117944;28;20058;-79
2023/12/21 09:13:40;;;;;;;0.98;0.30;;;8.00;80.50;;;;;;4118239;28;20484;-79
2023/12/21 09:15:42;;;;;;;1.13;0.22;;;8.00;80.50;;;;;;4117893;28;20082;-78
2023/12/21 09:17:46;;;;;;;1.48;0.30;;;8.00;80.60;;;;;;4117712;28;20050;-79
2023/12/21 09:19:48;;;;;;;1.23;0.40;;;8.00;80.60;;;;;;4117936;28;20412;-78
2023/12/21 09:21:49;;;;;;;1.70;0.50;;;8.00;80.60;;;;;;4117895;28;20097;-78
2023/12/21 09:23:52;;;;;;;1.98;0.40;;;8.00;80.60;;;;;;4118073;28;20051;-79
2023/12/21 09:25:54;;;;;;;1.10;0.40;;;8.00;80.70;;;;;;4117906;28;20444;-79
2023/12/21 09:27:57;;;;;;;1.58;0.50;;;8.10;80.90;;;;;;4114762;28;20559;-78
2023/12/21 09:29:59;;;;;;;1.70;0.50;;;8.00;81.10;;;;;;4115612;28;20062;-79
2023/12/21 09:32:02;;;;;;;0.70;0.30;;;8.10;81.10;;;;;;4115799;28;20523;-78
2023/12/21 09:34:07;;;;;;;0.73;0.25;;;8.10;81.20;;;;;;4115635;28;20098;-78
2023/12/21 09:36:10;;;;;;;1.10;0.45;;;8.10;81.20;;;;;;4115901;28;20049;-77
2023/12/21 09:38:11;;;;;;;0.52;0.20;;;8.10;82.20;;;;;;4115160;28;20142;-79
2023/12/21 09:40:13;;;;;;;1.25;0.43;;;8.10;82.00;;;;;;4113801;28;20419;-78
2023/12/21 09:42:16;;;;;;;0.93;0.40;;;8.10;81.40;;;;;;4115300;28;20137;-78
2023/12/21 09:44:20;;;;;;;2.35;0.43;;;8.10;81.70;;;;;;4115521;28;20061;-78
2023/12/21 09:46:23;;;;;;;1.65;0.50;;;8.10;81.50;;;;;;4115748;28;20090;-78
2023/12/21 09:48:26;;;;;;;0.63;0.30;;;8.10;81.40;;;;;;4115546;28;20057;-78
2023/12/21 09:50:30;;;;;;;0.68;0.28;;;8.10;81.40;;;;;;4115412;28;20046;-77
2023/12/21 09:52:34;;;;;;;1.38;0.32;;;8.10;81.40;;;;;;4115386;28;20042;-78
2023/12/21 09:54:51;;;;;;;1.15;0.30;;;8.10;81.40;;;;;;4114765;28;20074;-78
2023/12/21 10:03:25;;;;;;;1.13;0.35;;;8.20;81.50;;;;;;4014888;28;20471;-78
2023/12/21 10:05:28;;;;;;;1.15;0.40;;;8.20;81.40;;;;;;4099228;29;20086;-78
2023/12/21 10:07:30;;;;;;;1.58;0.50;;;8.30;81.40;;;;;;4098895;29;20051;-78
2023/12/21 10:09:34;;;;;;;2.13;0.55;;;8.30;81.20;;;;;;4098917;29;20481;-78
2023/12/21 10:11:36;;;;;;;2.60;0.40;;;8.30;81.10;;;;;;4098929;29;20055;-77
2023/12/21 10:13:38;;;;;;;1.27;0.40;;;8.30;81.20;;;;;;4098933;29;20070;-77
2023/12/21 10:15:40;;;;;;;1.55;0.57;;;8.30;81.20;;;;;;4098691;29;20390;-76
2023/12/21 10:17:42;;;;;;;0.85;0.40;;;8.30;81.20;;;;;;4098901;29;20079;-78
2023/12/21 10:19:46;;;;;;;0.95;0.28;;;8.30;81.10;;;;;;4098684;29;20047;-78
2023/12/21 10:21:49;;;;;;;1.45;0.50;;;8.40;81.10;;;;;;4098806;28;20055;-78
2023/12/21 10:23:52;;;;;;;0.70;0.30;;;8.40;81.10;;;;;;4098874;29;20055;-78
2023/12/21 10:25:55;;;;;;;3.00;0.45;;;8.40;81.10;;;;;;4098808;29;20051;-78
2023/12/21 10:27:58;;;;;;;0.90;0.30;;;8.40;81.10;;;;;;4098548;29;20059;-78
2023/12/21 10:29:59;;;;;;;1.67;0.50;;;8.50;81.30;;;;;;4098856;29;20051;-78
2023/12/21 10:32:04;;;;;;;0.55;0.30;;;8.50;81.20;;;;;;4098761;29;20110;-78
2023/12/21 10:34:09;;;;;;;0.52;0.30;;;8.50;81.50;;;;;;4098746;28;20114;-78
2023/12/21 10:36:11;;;;;;;0.95;0.40;;;8.50;81.60;;;;;;4098685;28;20129;-78
2023/12/21 10:38:14;;;;;;;0.98;0.35;;;8.50;81.70;;;;;;4098564;29;20125;-77
2023/12/21 10:40:17;;;;;;;0.50;0.20;;;8.50;81.80;;;;;;4096768;29;20102;-77
2023/12/21 10:42:19;;;;;;;1.02;0.40;;;8.60;82.10;;;;;;4098609;28;20047;-76
2023/12/21 10:44:22;;;;;;;0.75;0.25;;;8.60;82.10;;;;;;4098495;29;20051;-78
2023/12/21 10:46:24;;;;;;;0.35;0.20;;;8.60;82.20;;;;;;4098651;29;20047;-78
2023/12/21 10:48:28;;;;;;;0.70;0.20;;;8.60;82.50;;;;;;4098507;28;20465;-78
2023/12/21 10:50:30;;;;;;;0.65;0.30;;;8.60;82.90;;;;;;4097655;28;20354;-78
2023/12/21 10:52:33;;;;;;;1.23;0.30;;;8.60;83.10;;;;;;4098581;29;20055;-78
2023/12/21 10:54:36;;;;;;;1.10;0.25;;;8.60;83.40;;;;;;4098717;29;20105;-78
2023/12/21 10:56:41;;;;;;;1.60;0.30;;;8.60;83.50;;;;;;4098628;29;20051;-78
2023/12/21 10:58:44;;;;;;;1.10;0.40;;;8.60;83.70;;;;;;4098548;29;20408;-78
2023/12/21 11:00:46;;;;;;;1.00;0.20;;;8.60;83.70;;;;;;4109322;28;20055;-78
2023/12/21 11:02:48;;;;;;;1.30;0.20;;;8.60;83.70;;;;;;4113861;28;20082;-78
2023/12/21 11:04:52;;;;;;;1.85;0.45;;;8.60;83.80;;;;;;4114316;28;20062;-78
2023/12/21 11:06:55;;;;;;;1.15;0.32;;;8.60;83.70;;;;;;4114221;28;20061;-78
2023/12/21 11:08:57;;;;;;;2.30;0.20;;;8.60;83.70;;;;;;4114825;28;20050;-80
2023/12/21 11:11:00;;;;;;;0.70;0.28;;;8.60;83.80;;;;;;4114288;28;20469;-80
2023/12/21 11:13:02;;;;;;;1.20;0.30;;;8.60;83.60;;;;;;4114333;28;20416;-79
2023/12/21 11:15:05;;;;;;;1.20;0.20;;;8.70;83.50;;;;;;4113877;28;20130;-78
2023/12/21 11:17:10;;;;;;;2.00;0.47;;;8.60;83.30;;;;;;4114325;28;20046;-78
2023/12/21 11:19:16;;;;;;;0.73;0.20;;;8.70;83.40;;;;;;4114295;28;20050;-78
2023/12/21 11:21:19;;;;;;;0.88;0.40;;;8.70;83.20;;;;;;4114249;28;20413;-78
2023/12/21 11:23:22;;;;;;;1.10;0.40;;;8.70;83.30;;;;;;4114407;28;20050;-78
2023/12/21 11:25:24;;;;;;;0.95;0.30;;;8.70;83.00;;;;;;4114310;28;20046;-78
2023/12/21 11:27:28;;;;;;;0.93;0.20;;;8.70;83.10;;;;;;4113760;28;20463;-78
2023/12/21 11:29:30;;;;;;;0.85;0.20;;;8.70;83.00;;;;;;4099774;28;20051;-78
2023/12/21 11:31:39;;;;;;;0.82;0.30;;;8.70;82.90;;;;;;4098463;28;20477;-80
2023/12/21 11:33:41;;;;;;;0.65;0.15;;;8.70;82.90;;;;;;4098202;28;20453;-78
2023/12/21 11:35:54;;;;;;;2.33;0.30;;;8.80;83.10;;;;;;4098391;28;20417;-80
2023/12/21 11:38:00;;;;;;;0.98;0.20;;;8.80;83.10;;;;;;4098253;28;20532;-80
2023/12/21 11:40:04;;;;;;;;;;;8.80;82.90;;;;;;4097356;28;20058;-79
2023/12/21 11:42:06;;;;;;;1.50;0.20;;;8.80;82.80;;;;;;4098083;29;19930;-80
2023/12/21 11:44:13;;;;;;;0.75;0.17;;;8.80;82.70;;;;;;4098021;28;20329;-79
2023/12/21 11:46:16;;;;;;;2.17;0.60;;;8.80;82.70;;;;;;4098396;28;20489;-78
2023/12/21 11:48:20;;;;;;;1.95;0.82;;;8.80;82.70;;;;;;4098067;28;20461;-79
2023/12/21 11:50:26;;;;;;;1.75;0.30;;;8.90;82.70;;;;;;4098027;28;20075;-79
2023/12/21 11:52:28;;;;;;;1.45;0.40;;;8.90;82.60;;;;;;4098503;28;20582;-80
2023/12/21 11:54:30;;;;;;;2.67;0.47;;;8.90;82.50;;;;;;4098256;28;20058;-80
2023/12/21 11:56:35;;;;;;;1.23;0.30;;;8.90;82.50;;;;;;4098211;29;20111;-81
2023/12/21 11:58:41;;;;;;;0.30;0.20;;;8.90;82.50;;;;;;4097898;28;20153;-80
2023/12/21 12:00:46;;;;;;;2.38;0.13;;;8.90;82.50;;;;;;4108563;28;20062;-80
2023/12/21 12:02:49;;;;;;;0.55;0.22;;;8.90;82.30;;;;;;4116711;28;20109;-79
2023/12/21 12:04:52;;;;;;;0.20;0.10;;;8.90;82.10;;;;;;4117102;28;20641;-80
2023/12/21 12:06:56;;;;;;;0.77;0.10;;;9.00;82.10;;;;;;4117089;28;20133;-80
2023/12/21 12:08:58;;;;;;;1.02;0.30;;;9.00;81.70;;;;;;4117087;28;20095;-80
2023/12/21 12:11:00;;;;;;;0.85;0.20;;;9.00;81.80;;;;;;4117068;28;20054;-81
2023/12/21 12:13:04;;;;;;;2.13;0.40;;;9.00;81.60;;;;;;4117057;28;20055;-80
2023/12/21 12:15:06;;;;;;;0.57;0.20;;;9.00;81.10;;;;;;4116768;28;20129;-80
2023/12/21 12:17:10;;;;;;;0.63;0.20;;;9.10;80.80;;;;;;4117071;28;20097;-80
2023/12/21 12:19:12;;;;;;;0.57;0.20;;;9.00;80.70;;;;;;4117125;28;20051;-80
2023/12/21 12:21:13;;;;;;;1.88;0.22;;;9.10;80.80;;;;;;4116615;28;20087;-80
2023/12/21 12:23:16;;;;;;;0.45;0.17;;;9.10;80.70;;;;;;4103037;28;20130;-80
2023/12/21 12:25:17;;;;;;;2.03;0.20;;;9.10;80.30;;;;;;4101015;28;20055;-80
2023/12/21 12:27:19;;;;;;;1.95;0.40;;;9.20;81.00;;;;;;4100328;28;20051;-80
2023/12/21 12:29:21;;;;;;;0.45;0.10;;;9.20;80.20;;;;;;4100699;28;20109;-80
2023/12/21 12:31:23;;;;;;;0.63;0.30;;;9.20;80.10;;;;;;4101363;28;20106;-80
2023/12/21 12:33:26;;;;;;;0.40;0.20;;;9.20;79.80;;;;;;4100609;28;20075;-80
2023/12/21 12:35:28;;;;;;;0.57;0.20;;;9.20;79.60;;;;;;4101327;28;20086;-80
2023/12/21 12:37:32;;;;;;;0.82;0.22;;;9.20;79.60;;;;;;4100811;28;20055;-80
2023/12/21 12:39:33;;;;;;;4.03;0.25;;;9.30;79.70;;;;;;4100124;28;20050;-80
2023/12/21 12:41:35;;;;;;;0.85;0.20;;;9.30;79.20;;;;;;4098516;28;20485;-80
2023/12/21 12:43:37;;;;;;;2.28;0.20;;;9.30;79.40;;;;;;4100976;28;20075;-80
2023/12/21 12:45:41;;;;;;;0.35;0.10;;;9.30;79.10;;;;;;4100952;28;20051;-80
2023/12/21 12:47:44;;;;;;;0.70;0.25;;;9.30;79.00;;;;;;4100843;28;20046;-80
2023/12/21 12:49:46;;;;;;;0.88;0.30;;;9.30;79.10;;;;;;4101003;29;20460;-79
2023/12/21 12:51:48;;;;;;;3.13;0.28;;;9.30;79.10;;;;;;4099909;28;20098;-79
2023/12/21 12:53:51;;;;;;;0.75;0.30;;;9.30;79.20;;;;;;4100226;28;20565;-79
2023/12/21 12:55:56;;;;;;;0.45;0.10;;;9.30;79.40;;;;;;4100280;28;20129;-79
2023/12/21 12:57:57;;;;;;;2.97;0.50;;;9.30;79.30;;;;;;4100221;28;20098;-79
2023/12/21 13:00:00;;;;;;;0.77;0.40;;;9.40;78.80;;;;;;4100132;28;20047;-80
2023/12/21 13:02:02;;;;;;;1.40;0.40;;;9.40;79.10;;;;;;4104016;28;20074;-79
2023/12/21 13:04:04;;;;;;;0.70;0.22;;;9.40;79.70;;;;;;4116440;28;20063;-77
2023/12/21 13:06:08;;;;;;;0.30;0.10;;;9.40;79.30;;;;;;4116104;28;20078;-78
2023/12/21 13:08:10;;;;;;;0.93;0.13;;;9.40;79.20;;;;;;4116269;28;20055;-78
2023/12/21 13:10:12;;;;;;;0.38;0.20;;;9.40;79.00;;;;;;4116108;28;20120;-78
2023/12/21 13:12:14;;;;;;;0.30;0.20;;;9.40;79.00;;;;;;4116119;28;20059;-78
2023/12/21 13:14:17;;;;;;;4.13;1.10;;;9.40;79.20;;;;;;4115394;28;20051;-78
2023/12/21 13:16:19;;;;;;;0.57;0.20;;;9.40;79.20;;;;;;4116009;28;20055;-78
2023/12/21 13:18:21;;;;;;;2.42;0.60;;;9.40;78.90;;;;;;4115819;28;20057;-78
2023/12/21 13:20:22;;;;;;;0.90;0.28;;;9.40;79.10;;;;;;4115893;28;20067;-78
2023/12/21 13:22:26;;;;;;;0.55;0.28;;;9.40;78.90;;;;;;4116427;28;20505;-78
2023/12/21 13:24:27;;;;;;;2.25;0.60;;;9.40;78.80;;;;;;4115808;28;20059;-79
2023/12/21 13:26:29;;;;;;;1.95;0.40;;;9.50;78.80;;;;;;4115918;28;20133;-79
2023/12/21 13:28:31;;;;;;;2.20;0.40;;;9.50;79.10;;;;;;4115731;28;20527;-78
2023/12/21 13:30:33;;;;;;;0.55;0.20;;;9.50;79.20;;;;;;4115867;28;20104;-78
2023/12/21 13:32:34;;;;;;;0.68;0.20;;;9.50;79.50;;;;;;4115624;28;20118;-78
2023/12/21 13:34:36;;;;;;;1.20;0.20;;;9.40;79.60;;;;;;4115951;28;20462;-78
2023/12/21 13:36:37;;;;;;;0.10;0.10;;;9.40;79.90;;;;;;4115720;28;20053;-78
2023/12/21 13:38:41;;;;;;;0.73;0.20;;;9.40;80.00;;;;;;4115469;28;20138;-80
2023/12/21 13:40:43;;;;;;;0.40;0.10;;;9.40;79.80;;;;;;4113783;28;20118;-79
2023/12/21 13:42:45;;;;;;;0.98;0.22;;;9.40;79.90;;;;;;4115743;28;20054;-79
2023/12/21 13:44:47;;;;;;;0.98;0.30;;;9.40;80.20;;;;;;4115382;28;20053;-78
2023/12/21 13:46:50;;;;;;;0.45;0.20;;;9.40;80.30;;;;;;4115222;28;20254;-79
2023/12/21 13:48:51;;;;;;;0.40;0.20;;;9.40;80.50;;;;;;4115537;28;20055;-79
2023/12/21 13:50:53;;;;;;;0.95;0.30;;;9.40;81.00;;;;;;4115349;28;20506;-79
2023/12/21 13:52:55;;;;;;;0.47;0.25;;;9.40;81.40;;;;;;4115222;28;20065;-79
2023/12/21 13:54:58;;;;;;;0.50;0.20;;;9.30;81.80;;;;;;4115265;28;20110;-80
2023/12/21 13:57:00;;;;;;;2.15;0.20;;;9.30;82.10;;;;;;4115221;28;20047;-80
2023/12/21 13:59:02;;;;;;;0.45;0.20;;;9.30;82.40;;;;;;4115479;28;20618;-79
2023/12/21 14:01:05;;;;;;;0.80;0.20;;;9.20;83.00;;;;;;4115396;28;20117;-79
2023/12/21 14:03:06;;;;;;;0.43;0.17;;;9.30;83.40;;;;;;4114737;28;20067;-79
2023/12/21 14:05:09;;;;;;;0.88;0.30;;;9.20;84.00;;;;;;4115067;28;20046;-79
2023/12/21 14:07:11;;;;;;;1.15;0.40;;;9.20;84.70;;;;;;4115057;28;20106;-78
2023/12/21 14:09:12;;;;;;;0.45;0.30;;;9.10;85.30;;;;;;4115150;28;20150;-80
2023/12/21 14:11:15;;;;;;;1.00;0.40;;;9.10;85.70;;;;;;4115154;28;20051;-79
2023/12/21 14:13:17;;;;;;;0.75;0.28;;;9.10;86.00;;;;;;4114908;28;20109;-79
2023/12/21 14:15:19;;;;;;;0.55;0.22;;;9.10;85.90;;;;;;4114740;28;20463;-79
2023/12/21 14:17:21;;;;;;;0.57;0.20;;;9.10;86.10;;;;;;4115076;28;20058;-79
2023/12/21 14:19:23;;;;;;;0.60;0.20;;;9.00;86.20;;;;;;4115045;28;20051;-79
2023/12/21 14:21:25;;;;;;;0.85;0.28;;;9.00;86.40;;;;;;4114898;28;20050;-80
2023/12/21 14:23:27;;;;;;;0.68;0.40;;;9.00;86.50;;;;;;4114903;28;20500;-79
2023/12/21 14:25:28;;;;;;;0.68;0.20;;;9.00;86.70;;;;;;4114433;28;20058;-78
2023/12/21 14:27:31;;;;;;;0.73;0.28;;;9.00;86.50;;;;;;4114725;28;20061;-78
2023/12/21 14:29:33;;;;;;;1.00;0.30;;;9.00;86.80;;;;;;4114873;28;20483;-78
2023/12/21 14:31:35;;;;;;;0.75;0.28;;;9.00;86.80;;;;;;4115668;28;20051;-79
2023/12/21 14:33:37;;;;;;;2.20;0.70;;;9.00;86.90;;;;;;4115172;28;20109;-78
2023/12/21 14:35:38;;;;;;;1.10;0.50;;;9.00;86.80;;;;;;4114770;28;20054;-78
2023/12/21 14:37:39;;;;;;;0.90;0.50;;;9.00;87.00;;;;;;4115317;28;20519;-79
2023/12/21 14:39:42;;;;;;;0.88;0.30;;;9.00;87.20;;;;;;4114593;28;20043;-79
2023/12/21 14:41:45;;;;;;;1.30;0.32;;;9.00;87.30;;;;;;4124145;28;20064;-79
2023/12/21 14:43:49;;;;;;;0.25;0.15;;;9.00;87.60;;;;;;4128884;28;20130;-79
2023/12/21 14:45:51;;;;;;;1.92;0.40;;;8.90;88.30;;;;;;4098754;28;20457;-79
2023/12/21 14:47:53;;;;;;;1.58;0.60;;;8.90;88.90;;;;;;4098729;29;20051;-79
2023/12/21 14:49:54;;;;;;;2.08;0.50;;;8.90;89.40;;;;;;4098562;29;20055;-79
2023/12/21 14:51:56;;;;;;;0.63;0.30;;;8.80;89.70;;;;;;4125161;28;20480;-79
2023/12/21 14:53:57;;;;;;;1.13;0.40;;;8.80;90.10;;;;;;4130295;28;20097;-78
2023/12/21 14:55:59;;;;;;;0.80;0.32;;;8.80;90.20;;;;;;4119271;28;20050;-79
2023/12/21 14:58:00;;;;;;;2.25;0.40;;;8.80;90.30;;;;;;4117005;28;20046;-78
2023/12/21 15:00:08;;;;;;;1.25;0.60;;;8.80;90.60;;;;;;4130341;28;20105;-79
2023/12/21 15:02:10;;;;;;;0.95;0.40;;;8.70;90.70;;;;;;4115032;28;20050;-79
2023/12/21 15:04:12;;;;;;;1.75;0.38;;;8.70;90.90;;;;;;4114778;28;20050;-80
2023/12/21 15:06:15;;;;;;;0.68;0.30;;;8.70;90.90;;;;;;4114613;28;20468;-79
2023/12/21 15:08:16;;;;;;;1.58;0.60;;;8.70;91.10;;;;;;4114674;28;20494;-79
2023/12/21 15:10:18;;;;;;;1.45;0.50;;;8.70;91.00;;;;;;4114420;28;20094;-80
2023/12/21 15:12:21;;;;;;;0.70;0.30;;;8.70;91.00;;;;;;4130097;28;20566;-79
2023/12/21 15:14:23;;;;;;;0.80;0.30;;;8.60;91.10;;;;;;4130348;28;20046;-79
2023/12/21 15:16:27;;;;;;;1.50;0.40;;;8.60;91.20;;;;;;4130535;28;20050;-79
2023/12/21 15:18:29;;;;;;;0.75;0.47;;;8.70;91.10;;;;;;4116033;28;20090;-79
2023/12/21 15:20:31;;;;;;;1.40;0.45;;;8.60;91.10;;;;;;4117853;28;20050;-79
2023/12/21 15:22:34;;;;;;;3.15;1.00;;;8.60;91.20;;;;;;4130425;28;20108;-78
2023/12/21 15:24:35;;;;;;;0.55;0.30;;;8.70;91.30;;;;;;4112284;28;20535;-78
2023/12/21 15:26:37;;;;;;;1.95;0.50;;;8.70;91.30;;;;;;4112056;28;20046;-80
2023/12/21 15:28:39;;;;;;;0.60;0.30;;;8.70;91.30;;;;;;4112221;28;20043;-78
2023/12/21 15:30:40;;;;;;;1.17;0.35;;;8.60;91.30;;;;;;4113240;28;20051;-78
2023/12/21 15:32:45;;;;;;;1.00;0.40;;;8.60;91.50;;;;;;4108282;28;20047;-78
2023/12/21 15:34:47;;;;;;;2.45;0.50;;;8.60;91.30;;;;;;4106312;28;20101;-78
2023/12/21 15:36:49;;;;;;;2.85;1.27;;;8.60;91.40;;;;;;4099966;28;20122;-78
2023/12/21 15:38:51;;;;;;;3.38;1.70;;;8.60;91.40;;;;;;4116439;28;20059;-78
2023/12/21 15:40:53;;;;;;;1.40;0.55;;;8.70;91.50;;;;;;4115259;28;20066;-77
2023/12/21 15:42:55;;;;;;;7.20;3.85;;;8.60;91.60;;;;;;4117164;28;20047;-77
2023/12/21 15:44:57;;;;;;;1.20;0.50;;;8.60;91.60;;;;;;4116902;28;20051;-79
2023/12/21 15:46:58;;;;;;;3.90;0.50;;;8.70;91.60;;;;;;4117461;28;20503;-84
2023/12/21 15:49:02;;;;;;;1.98;0.60;;;8.60;91.70;;;;;;4116629;28;20051;-79
2023/12/21 15:51:05;;;;;;;1.10;0.40;;;8.60;91.70;;;;;;4108335;28;20412;-79
2023/12/21 15:53:07;;;;;;;0.75;0.35;;;8.70;91.70;;;;;;4117682;28;20051;-79
2023/12/21 15:55:09;;;;;;;1.65;0.47;;;8.70;91.60;;;;;;4114981;28;20212;-79
2023/12/21 15:57:10;;;;;;;2.03;0.50;;;8.70;91.60;;;;;;4105947;28;20047;-79
2023/12/21 15:59:13;;;;;;;0.88;0.30;;;8.70;91.60;;;;;;4117145;28;20047;-79
2023/12/21 16:01:16;;;;;;;1.33;0.50;;;8.70;91.60;;;;;;4116989;28;20050;-77
2023/12/21 16:03:18;;;;;;;0.95;0.43;;;8.70;91.70;;;;;;4116624;28;20067;-80
2023/12/21 16:05:21;;;;;;;2.53;1.10;;;8.70;91.70;;;;;;4116969;28;20066;-80
2023/12/21 16:07:24;;;;;;;1.95;0.73;;;8.70;91.80;;;;;;4117057;28;20051;-80
2023/12/21 16:09:26;;;;;;;2.08;0.70;;;8.70;91.80;;;;;;4116793;28;20477;-80
2023/12/21 16:11:28;;;;;;;0.95;0.50;;;8.70;91.80;;;;;;4116438;28;20165;-78
2023/12/21 16:13:30;;;;;;;1.02;0.60;;;8.70;91.80;;;;;;4116782;28;20051;-80
2023/12/21 16:15:31;;;;;;;1.05;0.40;;;8.70;91.90;;;;;;4116625;28;20145;-79
2023/12/21 16:17:33;;;;;;;1.52;0.52;;;8.70;92.00;;;;;;4116714;28;20050;-79
2023/12/21 16:19:35;;;;;;;0.88;0.50;;;8.70;92.10;;;;;;4116905;28;20516;-79
2023/12/21 16:21:38;;;;;;;1.40;0.52;;;8.70;92.20;;;;;;4116877;28;20473;-79
2023/12/21 16:23:40;;;;;;;1.20;0.50;;;8.70;92.30;;;;;;4116768;28;20053;-78
2023/12/21 16:25:43;;;;;;;1.50;0.70;;;8.70;92.40;;;;;;4125419;28;20050;-79
2023/12/21 16:27:44;;;;;;;2.70;0.70;;;8.70;92.50;;;;;;4115872;28;20072;-78
2023/12/21 16:29:46;;;;;;;2.10;0.70;;;8.70;92.70;;;;;;4110783;28;20062;-79
2023/12/21 16:31:49;;;;;;;1.65;0.60;;;8.70;92.80;;;;;;4105745;28;20050;-79
2023/12/21 16:33:51;;;;;;;1.45;0.55;;;8.70;92.90;;;;;;4116072;28;20498;-78
2023/12/21 16:35:53;;;;;;;1.38;0.60;;;8.70;93.10;;;;;;4105952;28;20051;-78
2023/12/21 16:37:56;;;;;;;0.95;0.52;;;8.70;93.10;;;;;;4116403;28;20050;-78
2023/12/21 16:39:58;;;;;;;1.90;0.60;;;8.70;93.10;;;;;;4115455;28;20129;-78
2023/12/21 16:42:00;;;;;;;1.60;0.60;;;8.70;93.00;;;;;;4115692;28;20050;-78
2023/12/21 16:44:02;;;;;;;2.13;0.60;;;8.70;92.90;;;;;;4113838;28;20583;-78
2023/12/21 16:46:05;;;;;;;1.65;0.50;;;8.70;92.90;;;;;;4115746;28;20053;-77
2023/12/21 16:48:08;;;;;;;1.70;0.70;;;8.70;92.80;;;;;;4115810;28;20082;-78
2023/12/21 16:50:10;;;;;;;1.55;0.50;;;8.70;92.70;;;;;;4114230;28;20051;-77
2023/12/21 16:52:11;;;;;;;2.78;1.10;;;8.80;92.70;;;;;;4114407;28;20105;-78
2023/12/21 16:54:15;;;;;;;3.30;0.85;;;8.80;92.70;;;;;;4116440;28;20050;-77